Time;durP1;ratioP1;P1;durP2;ratioP2;P2;SDS_P1;SDS_P2;PMS_P1;PMS_P2;Temp;Humidity;BMP_temperature;BMP_pressure;BME280_temperature;BME280_humidity;BME280_pressure;Samples;Min_cycle;Max_cycle;Signal;HPM_P1;HPM_P2
2022/07/11 00:02:06;;;;;;;16.55;12.00;;;;;;;20.19;76.34;99483.13;1732495;82;21204;-55
2022/07/11 00:05:15;;;;;;;16.00;11.63;;;;;;;20.16;76.32;99485.03;1739364;82;21776;-57
2022/07/11 00:08:21;;;;;;;16.07;11.90;;;;;;;20.13;76.42;99479.97;1739453;82;21402;-55
2022/07/11 00:11:28;;;;;;;15.58;11.88;;;;;;;20.14;76.49;99484.44;1739414;82;21216;-56
2022/07/11 00:14:34;;;;;;;20.62;12.65;;;;;;;20.12;76.52;99476.88;1715149;82;21207;-55
2022/07/11 00:17:41;;;;;;;20.08;12.95;;;;;;;20.13;76.59;99486.91;1736987;82;21214;-56
2022/07/11 00:20:47;;;;;;;12.98;11.60;;;;;;;20.12;76.64;99489.38;1739163;81;21209;-55
2022/07/11 00:23:56;;;;;;;20.10;13.25;;;;;;;20.11;76.65;99489.64;1739145;82;21240;-57
2022/07/11 00:27:02;;;;;;;13.60;12.20;;;;;;;20.07;76.68;99485.17;1739332;82;21242;-55
2022/07/11 00:30:08;;;;;;;13.95;11.70;;;;;;;20.06;76.75;99487.64;1739375;82;21216;-54
2022/07/11 00:33:17;;;;;;;16.17;11.48;;;;;;;20.03;76.81;99492.88;1738955;82;21201;-56
2022/07/11 00:36:23;;;;;;;17.02;11.63;;;;;;;20.00;76.83;99482.28;1738764;82;21211;-57
2022/07/11 00:39:29;;;;;;;13.43;12.03;;;;;;;20.01;76.93;99485.37;1740109;82;21343;-56
2022/07/11 00:42:35;;;;;;;17.05;12.55;;;;;;;20.00;76.95;99486.45;1734414;82;21369;-57
2022/07/11 00:45:41;;;;;;;14.18;12.10;;;;;;;19.98;77.00;99483.11;1738386;82;21284;-57
2022/07/11 00:48:46;;;;;;;13.45;12.07;;;;;;;19.97;77.08;99483.65;1739998;82;21263;-57
2022/07/11 00:51:53;;;;;;;15.88;12.25;;;;;;;19.96;77.11;99474.19;1739282;82;21224;-56
2022/07/11 00:54:58;;;;;;;17.17;12.95;;;;;;;19.93;77.17;99475.52;1740600;82;21252;-56
2022/07/11 00:58:03;;;;;;;13.35;11.57;;;;;;;19.92;77.25;99469.69;1737727;81;21800;-57
2022/07/11 01:01:11;;;;;;;17.60;12.43;;;;;;;19.91;77.26;99464.39;1731003;83;21351;-54
2022/07/11 01:04:17;;;;;;;15.45;12.20;;;;;;;19.89;77.33;99452.15;1731320;82;21366;-55
2022/07/11 01:07:24;;;;;;;16.02;11.40;;;;;;;19.86;77.41;99451.28;1731271;83;21228;-55
2022/07/11 01:10:31;;;;;;;14.68;12.88;;;;;;;19.87;77.52;99455.73;1731238;82;21301;-57
2022/07/11 01:13:58;;;;;;;16.42;11.88;;;;;;;19.87;77.57;99454.34;1731681;82;21240;-56
2022/07/11 01:17:06;;;;;;;15.58;11.65;;;;;;;19.86;77.56;99461.55;1801778;79;21260;-55
2022/07/11 01:20:14;;;;;;;17.40;12.33;;;;;;;19.85;77.67;99459.87;1811920;79;21170;-55
2022/07/11 01:23:20;;;;;;;16.85;11.43;;;;;;;19.87;77.78;99457.69;1817024;79;21201;-54
2022/07/11 01:26:26;;;;;;;15.95;12.60;;;;;;;19.86;77.78;99463.78;1817521;78;21564;-56
2022/07/11 01:29:33;;;;;;;15.58;12.20;;;;;;;19.84;77.76;99462.34;1817109;79;21145;-55
2022/07/11 01:32:39;;;;;;;14.93;12.13;;;;;;;19.82;77.85;99461.78;1817196;79;21253;-55
2022/07/11 01:35:44;;;;;;;15.58;11.65;;;;;;;19.82;77.99;99468.16;1817404;78;21173;-56
2022/07/11 01:38:50;;;;;;;14.87;12.25;;;;;;;19.85;78.08;99470.98;1816462;79;21383;-54
2022/07/11 01:41:57;;;;;;;16.85;12.65;;;;;;;19.87;78.09;99475.74;1817294;79;21422;-54
2022/07/11 01:45:03;;;;;;;16.25;12.05;;;;;;;19.89;78.16;99486.02;1817362;78;21352;-54
2022/07/11 01:48:09;;;;;;;14.00;12.55;;;;;;;19.87;78.16;99489.63;1817468;78;21343;-55
2022/07/11 01:51:15;;;;;;;17.25;13.03;;;;;;;19.90;78.26;99494.67;1817168;79;21234;-56
2022/07/11 01:54:21;;;;;;;13.93;12.47;;;;;;;19.93;78.36;99496.92;1817164;79;21189;-56
2022/07/11 01:57:26;;;;;;;16.82;12.63;;;;;;;19.93;78.29;99489.98;1817229;78;21197;-57
2022/07/11 02:00:34;;;;;;;15.05;12.40;;;;;;;19.90;78.30;99488.55;1816985;79;21793;-57
2022/07/11 02:03:40;;;;;;;14.15;12.50;;;;;;;19.91;78.29;99497.73;1798306;79;21706;-56
2022/07/11 02:06:48;;;;;;;17.50;13.00;;;;;;;19.89;78.29;99495.75;1769209;80;21415;-55
2022/07/11 02:09:54;;;;;;;16.17;12.65;;;;;;;19.87;78.32;99489.63;1788661;79;21209;-57
2022/07/11 02:13:01;;;;;;;16.30;12.55;;;;;;;19.85;78.37;99490.43;1799619;79;21154;-56
2022/07/11 02:16:07;;;;;;;16.35;12.75;;;;;;;19.84;78.37;99488.19;1801280;79;21345;-55
2022/07/11 02:19:15;;;;;;;15.83;13.10;;;;;;;19.84;78.44;99486.80;1816942;79;21205;-55
2022/07/11 02:22:22;;;;;;;15.70;12.43;;;;;;;19.84;78.50;99488.19;1817245;79;21174;-54
2022/07/11 02:25:29;;;;;;;17.77;13.53;;;;;;;19.85;78.58;99489.05;1790289;79;21729;-56
2022/07/11 02:28:36;;;;;;;17.10;12.82;;;;;;;19.88;78.63;99489.91;1817128;79;21249;-55
2022/07/11 02:31:43;;;;;;;15.00;13.20;;;;;;;19.89;78.70;99490.19;1817397;78;21197;-56
2022/07/11 02:34:49;;;;;;;15.03;13.40;;;;;;;19.93;78.84;99491.37;1816700;79;21233;-53
2022/07/11 02:37:56;;;;;;;16.20;13.20;;;;;;;19.97;78.99;99485.04;1817311;78;21232;-57
2022/07/11 02:40:58;;;;;;;14.25;12.85;;;;;;;19.99;78.97;99485.63;1817212;79;21343;-54
2022/07/11 02:44:07;;;;;;;16.82;13.68;;;;;;;20.00;78.98;99473.41;1817404;78;21154;-55
2022/07/11 02:47:08;;;;;;;14.80;12.90;;;;;;;20.01;78.93;99468.70;1817123;79;21201;-55
2022/07/11 02:50:17;;;;;;;16.27;13.43;;;;;;;20.00;78.95;99471.16;1817021;79;21174;-55
2022/07/11 02:53:23;;;;;;;18.32;14.05;;;;;;;20.00;78.98;99472.55;1816786;79;21161;-55
2022/07/11 02:56:29;;;;;;;17.55;12.95;;;;;;;20.01;79.10;99468.70;1817186;79;21304;-54
2022/07/11 02:59:36;;;;;;;17.10;13.38;;;;;;;20.01;79.14;99472.86;1817263;79;21181;-55
2022/07/11 03:02:42;;;;;;;16.57;12.47;;;;;;;20.02;79.17;99475.92;1816805;79;21248;-56
2022/07/11 03:05:49;;;;;;;15.40;13.13;;;;;;;20.02;79.08;99474.53;1817409;78;21391;-56
2022/07/11 03:08:55;;;;;;;14.63;13.05;;;;;;;19.99;79.13;99469.50;1816754;79;21418;-55
2022/07/11 03:12:01;;;;;;;14.75;12.40;;;;;;;20.00;79.15;99468.38;1790004;79;21245;-56
2022/07/11 03:15:07;;;;;;;17.07;13.50;;;;;;;19.99;79.18;99473.66;1817161;79;21332;-55
2022/07/11 03:18:14;;;;;;;14.73;13.15;;;;;;;20.01;79.26;99470.09;1799653;79;21202;-55
2022/07/11 03:21:20;;;;;;;15.58;12.88;;;;;;;20.02;79.32;99472.60;1797264;79;21198;-55
2022/07/11 03:24:26;;;;;;;15.40;12.63;;;;;;;20.06;79.36;99475.71;1797052;79;21222;-56
2022/07/11 03:27:32;;;;;;;16.17;13.15;;;;;;;20.07;79.40;99478.23;1797245;78;21261;-56
2022/07/11 03:30:38;;;;;;;14.00;12.60;;;;;;;20.09;79.46;99476.01;1796908;79;21834;-54
2022/07/11 03:33:45;;;;;;;14.78;13.28;;;;;;;20.10;79.47;99473.54;1797433;79;21178;-57
2022/07/11 03:36:50;;;;;;;14.20;12.80;;;;;;;20.12;79.49;99477.45;1796718;79;21261;-56
2022/07/11 03:39:58;;;;;;;13.88;12.40;;;;;;;20.12;79.55;99471.31;1797366;79;21325;-57
2022/07/11 03:43:05;;;;;;;15.90;11.57;;;;;;;20.09;79.41;99471.02;1796862;79;21265;-57
2022/07/11 03:46:10;;;;;;;13.43;12.05;;;;;;;20.07;79.52;99472.67;1797013;79;21206;-56
2022/07/11 03:49:16;;;;;;;13.98;12.35;;;;;;;20.07;79.60;99467.11;1778317;79;21352;-57
2022/07/11 03:52:23;;;;;;;13.20;11.83;;;;;;;20.11;79.73;99466.87;1796801;79;21234;-57
2022/07/11 03:55:28;;;;;;;14.30;12.30;;;;;;;20.11;79.69;99466.87;1797221;79;21183;-58
2022/07/11 03:58:34;;;;;;;14.10;12.60;;;;;;;20.09;79.64;99466.85;1798060;79;21194;-58
2022/07/11 04:01:40;;;;;;;13.65;12.25;;;;;;;20.07;79.74;99473.21;1797402;79;21257;-57
2022/07/11 04:04:45;;;;;;;14.50;12.88;;;;;;;20.07;79.89;99474.60;1797791;79;21166;-57
2022/07/11 04:07:51;;;;;;;15.10;13.05;;;;;;;20.11;80.05;99472.97;1797288;79;21249;-56
2022/07/11 04:10:58;;;;;;;13.50;12.03;;;;;;;20.15;80.12;99475.00;1797452;79;21206;-56
2022/07/11 04:13:58;;;;;;;12.88;11.57;;;;;;;20.18;80.13;99475.05;1772403;79;21202;-58
2022/07/11 04:16:51;;;;;;;14.13;12.73;;;;;;;20.18;80.08;99480.61;1765877;81;21245;-57
2022/07/11 04:20:00;;;;;;;14.57;13.17;;;;;;;20.19;80.09;99475.33;1735219;80;21309;-57
2022/07/11 04:23:05;;;;;;;14.90;13.38;;;;;;;20.20;80.16;99475.06;1713989;82;21204;-58
2022/07/11 04:26:13;;;;;;;14.05;12.65;;;;;;;20.22;80.25;99483.14;1732412;82;21368;-57
2022/07/11 04:29:21;;;;;;;15.78;12.58;;;;;;;20.24;80.35;99477.63;1732373;82;21244;-57
2022/07/11 04:32:26;;;;;;;14.15;12.70;;;;;;;20.25;80.33;99471.50;1732843;82;21291;-57
2022/07/11 04:35:36;;;;;;;15.32;12.80;;;;;;;20.22;80.27;99481.20;1734109;82;21181;-57
2022/07/11 04:38:44;;;;;;;14.65;13.15;;;;;;;20.22;80.32;99477.58;1732055;81;21213;-57
2022/07/11 04:41:51;;;;;;;13.18;11.88;;;;;;;20.23;80.44;99475.92;1731956;83;21228;-57
2022/07/11 04:44:56;;;;;;;14.75;12.68;;;;;;;20.25;80.49;99470.95;1732125;82;21248;-57
2022/07/11 04:48:01;;;;;;;13.13;11.93;;;;;;;20.27;80.48;99472.08;1743577;81;21595;-57
2022/07/11 04:51:06;;;;;;;13.72;12.37;;;;;;;20.26;80.44;99469.88;1752498;81;21232;-56
2022/07/11 04:54:12;;;;;;;14.03;12.60;;;;;;;20.28;80.55;99468.22;1762643;80;21254;-54
2022/07/11 04:57:20;;;;;;;13.13;11.88;;;;;;;20.29;80.63;99462.41;1762370;81;21296;-55
2022/07/11 05:00:26;;;;;;;14.80;13.30;;;;;;;20.32;80.65;99466.05;1756531;80;21197;-54
2022/07/11 05:03:34;;;;;;;13.15;11.85;;;;;;;20.33;80.68;99462.69;1751213;81;21584;-54
2022/07/11 05:06:42;;;;;;;13.40;11.83;;;;;;;20.36;80.75;99467.76;1736092;81;21366;-53
2022/07/11 05:09:48;;;;;;;12.43;10.30;;;;;;;20.39;80.77;99470.02;1731710;82;21236;-56
2022/07/11 05:13:02;;;;;;;15.43;10.50;;;;;;;20.39;80.72;99467.23;1731912;81;21350;-54
2022/07/11 05:16:10;;;;;;;12.45;10.68;;;;;;;20.41;80.81;99470.03;1751460;80;21211;-56
2022/07/11 05:19:18;;;;;;;12.23;9.95;;;;;;;20.45;80.85;99473.98;1739768;77;21295;-53
2022/07/11 05:22:26;;;;;;;12.47;9.73;;;;;;;20.46;80.82;99467.31;1680351;83;21347;-53
2022/07/11 05:25:32;;;;;;;13.28;8.55;;;;;;;20.47;80.75;99479.28;1711939;83;21226;-54
2022/07/11 05:28:37;;;;;;;10.98;8.43;;;;;;;20.46;80.71;99474.26;1681488;83;21224;-54
2022/07/11 05:31:50;;;;;;;11.18;8.53;;;;;;;20.49;80.75;99481.23;1701533;83;21250;-57
2022/07/11 05:34:54;;;;;;;11.60;7.60;;;;;;;20.50;80.68;99485.70;1713794;83;21359;-54
2022/07/11 05:38:01;;;;;;;9.60;6.97;;;;;;;20.49;80.51;99485.39;1701743;84;21274;-55
2022/07/11 05:41:07;;;;;;;8.43;6.37;;;;;;;20.45;80.25;99491.20;1687777;83;21239;-54
2022/07/11 05:44:13;;;;;;;10.58;6.78;;;;;;;20.35;80.05;99486.91;1707381;82;21179;-55
2022/07/11 05:47:20;;;;;;;9.10;6.25;;;;;;;20.33;80.22;99486.33;1685462;83;21260;-55
2022/07/11 05:50:29;;;;;;;9.15;6.60;;;;;;;20.33;80.22;99486.33;1695578;82;21234;-55
2022/07/11 05:53:35;;;;;;;10.23;6.03;;;;;;;20.33;80.29;99491.34;1704920;82;21218;-54
2022/07/11 05:56:41;;;;;;;11.68;6.70;;;;;;;20.34;80.33;99483.85;1687989;85;21247;-54
2022/07/11 05:59:49;;;;;;;10.65;6.35;;;;;;;20.37;80.33;99486.95;1716322;82;21221;-53
2022/07/11 06:02:59;;;;;;;8.58;6.45;;;;;;;20.35;80.27;99491.94;1682864;84;21222;-54
2022/07/11 06:06:11;;;;;;;7.53;5.80;;;;;;;20.34;80.21;99494.97;1663057;83;21189;-54
2022/07/11 06:09:17;;;;;;;12.28;6.42;;;;;;;20.34;80.17;99492.20;1741258;82;21732;-55
2022/07/11 06:12:22;;;;;;;10.45;6.75;;;;;;;20.33;80.25;99490.49;1727719;83;21239;-52
2022/07/11 06:15:32;;;;;;;9.15;6.78;;;;;;;20.34;80.34;99490.80;1735542;82;21207;-55
2022/07/11 06:18:38;;;;;;;8.28;6.05;;;;;;;20.40;80.56;99491.14;1712607;82;21283;-54
2022/07/11 06:21:44;;;;;;;10.00;6.17;;;;;;;20.44;80.73;99495.91;1682131;82;21231;-55
2022/07/11 06:24:53;;;;;;;10.43;6.17;;;;;;;20.46;80.58;99502.61;1705098;83;21202;-54
2022/07/11 06:28:01;;;;;;;8.50;6.60;;;;;;;20.46;80.47;99504.00;1700076;84;21290;-54
2022/07/11 06:31:10;;;;;;;9.13;6.78;;;;;;;20.41;80.39;99506.17;1680496;84;21621;-55
2022/07/11 06:34:38;;;;;;;12.53;6.10;;;;;;;20.40;80.44;99502.27;1692820;81;21347;-54
2022/07/11 06:37:56;;;;;;;9.63;6.10;;;;;;;20.42;80.57;99504.24;1650279;84;21296;-55
2022/07/11 06:41:05;;;;;;;7.87;5.37;;;;;;;20.45;80.61;99509.28;1676707;85;21280;-56
2022/07/11 06:44:19;;;;;;;9.45;6.37;;;;;;;20.40;80.52;99504.51;1628955;87;21321;-55
2022/07/11 06:47:30;;;;;;;8.80;6.12;;;;;;;20.39;80.60;99503.38;1631161;86;21394;-53
2022/07/11 06:50:49;;;;;;;8.45;5.90;;;;;;;20.41;80.77;99517.84;1637826;86;21333;-52
2022/07/11 06:54:00;;;;;;;8.55;6.35;;;;;;;20.40;80.69;99517.02;1622042;88;21244;-53
2022/07/11 06:57:09;;;;;;;7.87;5.70;;;;;;;20.39;80.71;99518.67;1630916;87;21773;-54
2022/07/11 07:00:18;;;;;;;6.95;5.65;;;;;;;20.38;80.80;99518.36;1643236;86;21268;-54
2022/07/11 07:03:25;;;;;;;9.20;7.08;;;;;;;20.33;80.78;99505.78;1632320;86;21243;-53
2022/07/11 07:06:31;;;;;;;8.45;6.03;;;;;;;20.31;80.86;99503.84;1635084;86;21498;-53
2022/07/11 07:09:39;;;;;;;9.65;6.30;;;;;;;20.30;80.99;99500.75;1662156;85;21224;-53
2022/07/11 07:12:48;;;;;;;11.85;6.37;;;;;;;20.26;81.09;99504.63;1684507;83;21867;-54
2022/07/11 07:15:56;;;;;;;7.65;6.25;;;;;;;20.23;81.23;99506.50;1660219;85;21246;-54
2022/07/11 07:19:04;;;;;;;9.00;6.00;;;;;;;20.24;81.26;99515.69;1662287;84;21201;-54
2022/07/11 07:22:14;;;;;;;7.75;5.80;;;;;;;20.24;81.29;99512.91;1656758;85;21384;-54
2022/07/11 07:25:24;;;;;;;7.25;5.58;;;;;;;20.23;81.28;99515.41;1661241;85;21809;-55
2022/07/11 07:28:31;;;;;;;6.83;5.85;;;;;;;20.23;81.36;99515.41;1661277;85;21244;-54
2022/07/11 07:31:38;;;;;;;8.80;6.70;;;;;;;20.26;81.44;99500.99;1683067;84;21751;-52
2022/07/11 07:34:44;;;;;;;9.75;6.58;;;;;;;20.31;81.51;99505.23;1665295;84;21234;-54
2022/07/11 07:37:51;;;;;;;9.58;6.62;;;;;;;20.38;81.60;99508.09;1649141;86;21227;-54
2022/07/11 07:41:07;;;;;;;10.75;6.45;;;;;;;20.44;81.57;99516.77;1650591;85;21240;-54
2022/07/11 07:44:24;;;;;;;10.13;6.28;;;;;;;20.47;81.56;99521.80;1675913;84;21239;-56
2022/07/11 07:47:34;;;;;;;10.72;6.55;;;;;;;20.51;81.44;99523.52;1678318;84;21190;-54
2022/07/11 07:50:45;;;;;;;8.20;5.80;;;;;;;20.52;81.37;99531.60;1650840;83;21365;-54
2022/07/11 07:53:56;;;;;;;8.15;5.72;;;;;;;20.55;81.45;99531.08;1647038;86;21392;-53
2022/07/11 07:57:02;;;;;;;7.67;6.15;;;;;;;20.56;81.43;99531.93;1683136;83;21229;-54
2022/07/11 08:03:37;;;;;;;7.58;5.50;;;;;;;20.55;81.41;99533.86;1627564;88;21255;-53
2022/07/11 08:06:44;;;;;;;7.42;5.17;;;;;;;20.58;81.43;99537.50;1652424;83;21255;-54
2022/07/11 08:09:49;;;;;;;6.35;5.00;;;;;;;20.66;81.59;99527.87;1660975;86;21811;-54
2022/07/11 08:12:59;;;;;;;6.97;5.17;;;;;;;20.71;81.62;99531.54;1644904;86;21954;-53
2022/07/11 08:16:12;;;;;;;7.55;5.20;;;;;;;20.77;81.62;99522.70;1637570;86;21271;-53
2022/07/11 08:19:24;;;;;;;7.20;5.12;;;;;;;20.87;81.66;99524.75;1650522;85;21270;-53
2022/07/11 08:22:28;;;;;;;6.50;5.03;;;;;;;20.95;81.70;99526.48;1677927;84;21238;-55
2022/07/11 08:25:33;;;;;;;7.75;5.20;;;;;;;21.03;81.69;99525.19;1678513;85;21385;-54
2022/07/11 08:28:42;;;;;;;8.70;5.05;;;;;;;21.07;81.62;99532.77;1676868;84;21237;-55
2022/07/11 08:31:52;;;;;;;6.15;4.87;;;;;;;21.10;81.63;99535.02;1655825;85;21213;-54
2022/07/11 08:35:02;;;;;;;6.92;4.65;;;;;;;21.11;81.49;99536.70;1651064;87;21248;-55
2022/07/11 08:38:11;;;;;;;6.37;4.97;;;;;;;21.13;81.51;99540.60;1650876;87;21359;-55
2022/07/11 08:41:21;;;;;;;7.28;4.62;;;;;;;21.16;81.61;99538.14;1651178;85;21268;-56
2022/07/11 08:44:31;;;;;;;9.45;4.95;;;;;;;21.24;81.61;99537.66;1648322;86;21910;-57
2022/07/11 08:47:40;;;;;;;6.47;4.62;;;;;;;21.33;81.56;99541.62;1659026;85;21264;-56
2022/07/11 08:50:47;;;;;;;5.78;4.70;;;;;;;21.41;81.53;99540.28;1637334;86;21330;-54
2022/07/11 08:53:59;;;;;;;7.17;4.90;;;;;;;21.45;81.30;99535.87;1630437;88;21292;-53
2022/07/11 08:57:06;;;;;;;6.97;4.95;;;;;;;21.47;81.19;99538.66;1640692;87;21838;-53
2022/07/11 09:00:15;;;;;;;6.08;4.33;;;;;;;21.48;81.11;99539.52;1630172;87;21288;-55
2022/07/11 09:03:22;;;;;;;7.12;4.60;;;;;;;21.53;81.18;99547.91;1629978;86;21196;-57
2022/07/11 09:06:31;;;;;;;5.10;4.40;;;;;;;21.58;81.28;99553.52;1629428;85;21286;-54
2022/07/11 09:09:40;;;;;;;6.30;4.33;;;;;;;21.66;81.42;99555.24;1629559;87;21935;-54
2022/07/11 09:13:05;;;;;;;4.70;3.60;;;;;;;21.78;81.42;99554.55;1603357;88;21261;-54
2022/07/11 09:16:15;;;;;;;6.83;3.95;;;;;;;21.86;81.37;99555.44;1630614;87;21315;-55
2022/07/11 09:19:31;;;;;;;4.80;4.15;;;;;;;21.90;81.24;99558.50;1630381;88;21212;-53
2022/07/11 09:26:04;;;;;;;5.05;3.83;;;;;;;21.90;81.21;99552.37;1639817;87;21299;-54
2022/07/11 09:29:13;;;;;;;6.20;4.03;;;;;;;21.91;81.13;99551.83;1646891;86;21738;-56
2022/07/11 09:32:20;;;;;;;6.42;4.00;;;;;;;21.94;81.13;99545.17;1630914;87;21262;-54
2022/07/11 09:35:25;;;;;;;5.37;4.10;;;;;;;21.94;81.09;99553.53;1640291;87;21226;-55
2022/07/11 09:38:30;;;;;;;6.50;4.37;;;;;;;21.89;80.96;99560.47;1654142;85;21197;-54
2022/07/11 09:41:42;;;;;;;5.78;4.10;;;;;;;21.82;80.90;99562.63;1632405;87;21255;-55
2022/07/11 09:44:51;;;;;;;6.22;4.83;;;;;;;21.71;80.94;99563.64;1632511;87;22055;-53
2022/07/11 09:48:05;;;;;;;6.20;4.22;;;;;;;21.59;81.07;99567.19;1604499;87;21334;-54
2022/07/11 09:51:12;;;;;;;5.10;3.80;;;;;;;21.50;81.21;99573.52;1604354;89;21312;-54
2022/07/11 09:54:21;;;;;;;8.70;5.37;;;;;;;21.32;81.19;99566.95;1604135;89;21244;-54
2022/07/11 09:57:29;;;;;;;3.90;2.58;;;;;;;21.21;81.44;99574.37;1634988;88;21231;-54
2022/07/11 10:00:35;;;;;;;1.75;1.62;;;;;;;21.20;81.72;99567.11;1617606;87;21236;-54
2022/07/11 10:03:43;;;;;;;4.55;2.17;;;;;;;21.27;81.96;99572.46;1607793;89;21244;-53
2022/07/11 10:06:52;;;;;;;6.03;3.12;;;;;;;21.31;81.84;99575.84;1603949;89;21343;-53
2022/07/11 10:09:59;;;;;;;10.45;4.90;;;;;;;21.32;81.90;99562.23;1603638;89;21397;-54
2022/07/11 10:13:08;;;;;;;5.00;2.45;;;;;;;21.37;81.85;99555.31;1594923;89;21235;-53
2022/07/11 10:16:31;;;;;;;3.55;1.85;;;;;;;21.46;81.96;99552.86;1597274;90;21252;-53
2022/07/11 10:19:57;;;;;;;1.95;1.25;;;;;;;21.59;82.01;99550.47;1582564;89;21819;-53
2022/07/11 10:23:14;;;;;;;1.40;1.20;;;;;;;21.76;82.00;99555.90;1591625;89;21270;-54
2022/07/11 10:26:51;;;;;;;1.25;1.10;;;;;;;21.80;81.79;99550.09;1600521;87;21319;-55
2022/07/11 10:30:01;;;;;;;1.50;1.30;;;;;;;21.89;81.79;99545.68;1589483;89;21285;-54
2022/07/11 10:33:10;;;;;;;1.10;1.00;;;;;;;21.99;81.70;99545.75;1587922;88;21249;-55
2022/07/11 10:36:34;;;;;;;2.90;1.15;;;;;;;22.04;81.55;99538.23;1621694;87;21260;-54
2022/07/11 10:39:46;;;;;;;1.67;1.00;;;;;;;22.11;81.45;99540.78;1591694;89;21872;-54
2022/07/11 10:42:53;;;;;;;1.32;1.00;;;;;;;22.20;81.48;99540.00;1595302;87;21273;-54
2022/07/11 10:46:14;;;;;;;1.82;1.12;;;;;;;22.22;81.33;99553.67;1567003;90;21291;-55
2022/07/11 10:49:27;;;;;;;1.70;1.17;;;;;;;22.23;81.43;99549.21;1623332;86;21828;-54
2022/07/11 10:52:38;;;;;;;2.65;1.00;;;;;;;22.30;81.39;99558.73;1630207;86;21863;-56
2022/07/11 10:55:53;;;;;;;1.05;0.82;;;;;;;22.31;81.35;99563.18;1630753;86;21788;-56
2022/07/11 10:59:14;;;;;;;1.32;0.62;;;;;;;22.34;81.38;99572.43;1629451;87;21193;-56
2022/07/11 11:02:21;;;;;;;0.93;0.80;;;;;;;22.36;81.34;99564.61;1616742;87;21283;-55
2022/07/11 11:05:54;;;;;;;1.02;0.70;;;;;;;22.36;81.29;99572.16;1625642;88;21255;-55
2022/07/11 11:09:01;;;;;;;;;;;;;;;22.34;81.26;99579.95;1643457;87;21809;-55
2022/07/11 11:12:12;;;;;;;1.30;1.20;;;;;;;22.24;81.13;99583.52;1630346;86;20226;-55
2022/07/11 11:16:00;;;;;;;2.37;1.60;;;;;;;22.17;81.26;99584.30;1630960;88;21271;-56
2022/07/11 11:19:07;;;;;;;2.47;1.30;;;;;;;22.23;81.40;99588.83;1631880;85;21737;-54
2022/07/11 11:22:23;;;;;;;2.83;1.50;;;;;;;22.33;81.49;99588.01;1631638;86;21624;-55
2022/07/11 11:25:31;;;;;;;1.32;1.07;;;;;;;22.30;81.26;99587.16;1654376;85;21749;-54
2022/07/11 11:28:37;;;;;;;1.42;1.22;;;;;;;22.33;81.41;99603.34;1656131;86;21647;-57
2022/07/11 11:31:43;;;;;;;1.75;1.30;;;;;;;22.38;81.37;99601.98;1629520;87;21239;-56
2022/07/11 11:34:52;;;;;;;1.40;1.27;;;;;;;22.46;81.40;99610.69;1637325;87;21234;-57
2022/07/11 11:38:00;;;;;;;1.85;1.10;;;;;;;22.47;81.20;99614.33;1638400;86;21287;-56
2022/07/11 11:41:06;;;;;;;1.62;1.37;;;;;;;22.48;81.21;99608.47;1625254;88;21323;-55
2022/07/11 11:44:15;;;;;;;2.62;1.02;;;;;;;22.52;81.27;99609.63;1634814;86;21266;-56
2022/07/11 11:47:20;;;;;;;1.30;1.15;;;;;;;22.58;81.28;99610.50;1647594;83;21231;-56
2022/07/11 11:50:28;;;;;;;1.50;1.40;;;;;;;22.61;81.27;99607.98;1606706;88;21254;-55
2022/07/11 11:53:33;;;;;;;1.70;1.60;;;;;;;22.66;81.20;99612.77;1603076;89;21294;-55
2022/07/11 11:56:42;;;;;;;2.65;1.98;;;;;;;22.59;80.92;99621.39;1598770;88;21269;-54
2022/07/11 11:59:56;;;;;;;2.35;2.00;;;;;;;22.48;80.87;99624.36;1600614;89;21238;-52
2022/07/11 12:03:11;;;;;;;1.92;1.70;;;;;;;22.48;81.12;99631.33;1610023;89;21273;-52
2022/07/11 12:06:33;;;;;;;3.75;1.75;;;;;;;22.61;81.37;99628.91;1591479;89;21277;-54
2022/07/11 12:09:55;;;;;;;1.67;1.40;;;;;;;22.74;81.13;99630.39;1595701;88;21783;-55
2022/07/11 12:12:59;;;;;;;2.75;1.42;;;;;;;22.73;80.89;99629.53;1560744;89;21786;-55
2022/07/11 12:19:31;;;;;;;1.50;1.40;;;;;;;22.89;81.01;99625.69;1593536;89;21343;-55
2022/07/11 12:22:42;;;;;;;2.12;1.80;;;;;;;23.14;81.26;99643.05;1601422;89;21806;-56
2022/07/11 12:25:50;;;;;;;1.60;1.30;;;;;;;23.36;81.09;99652.08;1594704;89;21330;-56
2022/07/11 12:29:24;;;;;;;1.52;1.42;;;;;;;23.54;80.99;99631.99;1578976;91;21743;-57
2022/07/11 12:32:31;;;;;;;1.92;1.50;;;;;;;23.66;80.73;99631.16;1576429;90;21265;-55
2022/07/11 12:35:38;;;;;;;1.95;1.75;;;;;;;23.67;80.42;99648.22;1584646;89;21302;-55
2022/07/11 12:38:59;;;;;;;3.50;2.80;;;;;;;23.56;80.08;99639.55;1616244;87;21759;-54
2022/07/11 12:42:07;;;;;;;3.40;2.75;;;;;;;23.48;80.04;99628.92;1614160;89;21260;-55
2022/07/11 12:45:17;;;;;;;3.33;2.42;;;;;;;23.60;80.32;99630.88;1601381;89;21275;-55
2022/07/11 12:48:45;;;;;;;2.83;2.30;;;;;;;23.83;80.48;99633.13;1624401;84;21225;-56
2022/07/11 12:51:52;;;;;;;3.20;2.80;;;;;;;23.90;80.12;99628.63;1649604;86;21832;-56
2022/07/11 12:55:04;;;;;;;3.30;2.85;;;;;;;23.83;79.77;99626.14;1619110;88;21279;-54
2022/07/11 12:58:18;;;;;;;3.87;3.47;;;;;;;23.82;79.92;99627.82;1618710;86;21247;-58
2022/07/11 13:01:28;;;;;;;3.50;3.20;;;;;;;23.81;79.87;99622.78;1642901;86;21270;-57
2022/07/11 13:04:45;;;;;;;3.52;3.22;;;;;;;23.76;79.71;99622.77;1621202;88;22091;-54
2022/07/11 13:11:26;;;;;;;4.00;3.60;;;;;;;23.77;79.95;99609.06;1630974;86;21751;-55
2022/07/11 13:17:58;;;;;;;5.22;2.83;;;;;;;23.94;79.94;99605.44;1612134;88;21271;-54
2022/07/11 13:21:14;;;;;;;3.60;2.83;;;;;;;24.02;80.15;99614.69;1616775;86;21266;-54
2022/07/11 13:24:21;;;;;;;2.75;2.45;;;;;;;24.14;80.00;99618.02;1613520;87;21244;-57
2022/07/11 13:27:33;;;;;;;2.85;2.55;;;;;;;24.28;79.91;99618.25;1616507;88;21475;-57
2022/07/11 13:30:42;;;;;;;3.25;2.80;;;;;;;24.31;79.56;99619.92;1630082;86;22035;-56
2022/07/11 13:33:52;;;;;;;6.25;3.72;;;;;;;24.36;79.28;99618.52;1641702;86;21230;-55
2022/07/11 13:37:03;;;;;;;5.37;3.60;;;;;;;24.42;79.09;99609.56;1638503;87;21250;-55
2022/07/11 13:40:15;;;;;;;4.55;3.50;;;;;;;24.58;79.20;99610.61;1649989;87;21379;-55
2022/07/11 13:43:21;;;;;;;3.87;3.10;;;;;;;24.71;79.01;99606.39;1640694;87;21232;-55
2022/07/11 13:46:34;;;;;;;4.05;3.62;;;;;;;24.53;78.43;99613.42;1627307;87;21210;-53
2022/07/11 13:49:48;;;;;;;5.15;4.00;;;;;;;24.22;78.26;99609.05;1620469;87;21378;-56
2022/07/11 13:53:05;;;;;;;4.00;3.22;;;;;;;24.11;78.54;99611.59;1643645;86;21425;-52
2022/07/11 13:56:16;;;;;;;3.42;3.12;;;;;;;23.90;78.34;99597.32;1665428;85;21835;-53
2022/07/11 13:59:25;;;;;;;3.67;3.33;;;;;;;23.75;78.59;99609.93;1606136;89;21237;-51
2022/07/11 14:02:35;;;;;;;3.65;3.35;;;;;;;23.70;78.68;99602.09;1627577;88;21260;-51
2022/07/11 14:05:46;;;;;;;3.90;3.22;;;;;;;23.68;78.81;99599.58;1626782;88;21254;-51
2022/07/11 14:08:54;;;;;;;4.03;3.22;;;;;;;23.77;79.16;99595.09;1630571;86;21299;-49
2022/07/11 14:12:03;;;;;;;4.17;3.08;;;;;;;24.00;79.35;99589.52;1629870;86;21797;-50
2022/07/11 14:15:14;;;;;;;4.12;3.22;;;;;;;23.98;78.88;99588.95;1647774;86;21740;-51
2022/07/11 14:18:25;;;;;;;4.22;3.75;;;;;;;23.82;78.68;99586.70;1645732;86;21206;-50
2022/07/11 14:21:32;;;;;;;6.45;3.50;;;;;;;23.71;78.58;99601.80;1625133;86;21212;-50
2022/07/11 14:24:41;;;;;;;4.17;3.17;;;;;;;23.67;78.69;99606.30;1638025;86;21230;-52
2022/07/11 14:27:51;;;;;;;4.37;3.10;;;;;;;23.62;78.72;99602.10;1632412;88;21255;-52
2022/07/11 14:30:58;;;;;;;5.05;3.70;;;;;;;23.67;78.93;99607.69;1628835;86;21794;-50
2022/07/11 14:34:05;;;;;;;3.42;3.12;;;;;;;23.70;78.80;99602.94;1630256;87;21780;-50
2022/07/11 14:37:17;;;;;;;4.33;3.92;;;;;;;23.69;78.70;99603.22;1614477;87;21219;-50
2022/07/11 14:40:23;;;;;;;4.83;3.85;;;;;;;23.73;78.79;99602.38;1630501;87;21227;-50
2022/07/11 14:43:29;;;;;;;4.30;3.85;;;;;;;23.82;78.76;99606.27;1598336;88;21204;-52
2022/07/11 14:46:37;;;;;;;6.78;4.60;;;;;;;23.88;78.68;99599.55;1644180;85;21259;-51
2022/07/11 14:49:46;;;;;;;4.58;4.10;;;;;;;23.96;78.64;99601.78;1649973;86;21288;-51
2022/07/11 14:52:55;;;;;;;6.53;3.85;;;;;;;24.07;78.55;99600.67;1644957;85;21795;-50
2022/07/11 14:56:03;;;;;;;4.15;3.75;;;;;;;24.19;78.43;99612.42;1658733;86;21251;-50
2022/07/11 14:59:11;;;;;;;6.05;4.05;;;;;;;24.31;78.31;99614.91;1646583;86;21211;-50